createdAt,value
2018-09-11T00:00:59.477Z,6.37
2018-09-11T00:02:03.684Z,6.70
2018-09-11T00:03:10.026Z,8.15
2018-09-11T00:04:14.236Z,6.75
2018-09-11T00:05:18.386Z,6.58
2018-09-11T00:06:22.537Z,6.08
2018-09-11T00:07:26.683Z,6.45
2018-09-11T00:08:30.864Z,6.10
2018-09-11T00:09:35.266Z,6.50
2018-09-11T00:10:39.400Z,6.12
2018-09-11T00:11:44.424Z,5.50
2018-09-11T00:12:48.612Z,5.95
2018-09-11T00:13:53.171Z,5.60
2018-09-11T00:14:57.430Z,5.40
2018-09-11T00:16:01.607Z,5.00
2018-09-11T00:17:06.041Z,5.50
2018-09-11T00:18:10.238Z,5.78
2018-09-11T00:19:14.362Z,4.58
2018-09-11T00:20:18.575Z,4.42
2018-09-11T00:21:22.887Z,4.95
2018-09-11T00:22:27.038Z,4.28
2018-09-11T00:23:31.233Z,4.53
2018-09-11T00:24:35.573Z,4.22
2018-09-11T00:25:39.777Z,3.98
2018-09-11T00:26:43.985Z,4.72
2018-09-11T00:27:48.495Z,4.15
2018-09-11T00:28:52.931Z,4.35
2018-09-11T00:29:57.068Z,3.87
2018-09-11T00:31:01.474Z,4.15
2018-09-11T00:32:05.724Z,4.50
2018-09-11T00:33:10.033Z,3.52
2018-09-11T00:34:14.442Z,3.83
2018-09-11T00:35:18.751Z,3.98
2018-09-11T00:36:23.140Z,3.25
2018-09-11T00:37:27.283Z,3.15
2018-09-11T00:38:31.905Z,3.65
2018-09-11T00:39:36.139Z,3.55
2018-09-11T00:40:40.342Z,3.67
2018-09-11T00:41:44.596Z,3.37
2018-09-11T00:42:48.801Z,3.52
2018-09-11T00:43:52.976Z,3.80
2018-09-11T00:44:57.147Z,2.80
2018-09-11T00:46:01.343Z,3.62
2018-09-11T00:47:05.527Z,4.00
2018-09-11T00:48:09.716Z,2.92
2018-09-11T00:49:13.874Z,3.35
2018-09-11T00:50:18.110Z,3.87
2018-09-11T00:51:22.286Z,4.03
2018-09-11T00:52:26.532Z,3.37
2018-09-11T00:53:30.965Z,2.72
2018-09-11T00:54:35.146Z,3.15
2018-09-11T00:55:39.500Z,3.02
2018-09-11T00:56:43.683Z,2.40
2018-09-11T00:57:47.902Z,3.50
2018-09-11T00:58:52.287Z,3.12
2018-09-11T00:59:56.765Z,2.90
2018-09-11T01:01:00.938Z,3.52
2018-09-11T01:02:05.313Z,3.15
2018-09-11T01:03:09.538Z,3.37
2018-09-11T01:04:13.762Z,3.02
2018-09-11T01:05:18.268Z,3.33
2018-09-11T01:06:22.454Z,2.80
2018-09-11T01:07:26.669Z,3.45
2018-09-11T01:08:30.904Z,3.27
2018-09-11T01:09:35.084Z,2.90
2018-09-11T01:10:39.243Z,3.00
2018-09-11T01:11:43.469Z,3.20
2018-09-11T01:12:47.630Z,2.45
2018-09-11T01:13:51.850Z,2.85
2018-09-11T01:14:56.046Z,3.72
2018-09-11T01:16:00.195Z,2.80
2018-09-11T01:17:04.391Z,3.27
2018-09-11T01:18:08.605Z,2.40
2018-09-11T01:19:13.004Z,2.90
2018-09-11T01:20:17.148Z,3.02
2018-09-11T01:21:21.377Z,2.75
2018-09-11T01:22:26.004Z,3.47
2018-09-11T01:23:30.234Z,2.90
2018-09-11T01:24:34.452Z,2.77
2018-09-11T01:25:38.736Z,2.87
2018-09-11T01:26:42.922Z,3.15
2018-09-11T01:27:47.260Z,2.90
2018-09-11T01:28:51.392Z,3.40
2018-09-11T01:29:55.736Z,3.15
2018-09-11T01:30:59.941Z,2.90
2018-09-11T01:32:04.182Z,3.15
2018-09-11T01:33:08.366Z,3.22
2018-09-11T01:34:12.528Z,3.05
2018-09-11T01:35:16.953Z,2.98
2018-09-11T01:36:21.160Z,3.27
2018-09-11T01:37:25.339Z,3.08
2018-09-11T01:38:29.524Z,2.90
2018-09-11T01:39:33.706Z,3.25
2018-09-11T01:40:38.003Z,2.65
2018-09-11T01:41:42.293Z,3.92
2018-09-11T01:42:46.530Z,2.80
2018-09-11T01:43:50.830Z,3.10
2018-09-11T01:44:55.008Z,3.22
2018-09-11T01:45:59.260Z,3.20
2018-09-11T01:47:03.394Z,3.30
2018-09-11T01:48:07.625Z,3.00
2018-09-11T01:49:11.829Z,2.80
2018-09-11T01:50:16.003Z,3.27
2018-09-11T01:51:20.370Z,3.65
2018-09-11T01:52:24.828Z,2.67
2018-09-11T01:53:29.105Z,4.70
2018-09-11T01:54:33.248Z,3.60
2018-09-11T01:55:37.619Z,3.17
2018-09-11T01:56:41.825Z,2.85
2018-09-11T01:57:46.131Z,2.80
2018-09-11T01:58:50.746Z,3.05
2018-09-11T01:59:54.976Z,2.45
2018-09-11T02:00:59.415Z,2.50
2018-09-11T02:02:03.659Z,3.10
2018-09-11T02:03:08.122Z,2.60
2018-09-11T02:04:12.283Z,3.05
2018-09-11T02:05:16.769Z,3.00
2018-09-11T02:06:20.935Z,2.95
2018-09-11T02:07:28.458Z,3.65
2018-09-11T02:08:32.956Z,3.00
2018-09-11T02:09:37.168Z,2.95
2018-09-11T02:10:41.342Z,3.20
2018-09-11T02:11:45.532Z,3.95
2018-09-11T02:12:49.816Z,3.20
2018-09-11T02:13:54.022Z,2.60
2018-09-11T02:14:58.228Z,2.70
2018-09-11T02:16:02.366Z,2.90
2018-09-11T02:17:06.760Z,2.72
2018-09-11T02:18:11.000Z,3.45
2018-09-11T02:19:15.155Z,2.65
2018-09-11T02:20:19.361Z,3.02
2018-09-11T02:21:23.561Z,2.80
2018-09-11T02:22:27.766Z,3.37
2018-09-11T02:23:31.976Z,2.83
2018-09-11T02:24:36.206Z,3.02
2018-09-11T02:25:40.356Z,2.50
2018-09-11T02:26:44.587Z,2.92
2018-09-11T02:27:48.801Z,3.10
2018-09-11T02:28:53.503Z,3.02
2018-09-11T02:29:57.917Z,2.65
2018-09-11T02:31:02.070Z,2.80
2018-09-11T02:32:06.425Z,2.77
2018-09-11T02:33:10.745Z,3.27
2018-09-11T02:34:14.946Z,3.25
2018-09-11T02:35:19.251Z,3.17
2018-09-11T02:36:23.481Z,3.83
2018-09-11T02:37:27.777Z,3.30
2018-09-11T02:38:31.963Z,2.95
2018-09-11T02:39:36.147Z,3.02
2018-09-11T02:40:40.347Z,3.25
2018-09-11T02:41:44.510Z,3.58
2018-09-11T02:42:48.853Z,3.47
2018-09-11T02:43:53.440Z,3.15
2018-09-11T02:44:57.665Z,3.25
2018-09-11T02:46:01.919Z,3.05
2018-09-11T02:47:06.326Z,2.50
2018-09-11T02:48:10.557Z,3.40
2018-09-11T02:49:14.740Z,4.00
2018-09-11T02:50:18.973Z,3.05
2018-09-11T02:51:23.204Z,3.30
2018-09-11T02:52:27.548Z,2.98
2018-09-11T02:53:31.701Z,2.95
2018-09-11T02:54:35.967Z,3.60
2018-09-11T02:55:40.178Z,3.40
2018-09-11T02:56:44.416Z,3.50
2018-09-11T02:57:48.684Z,3.60
2018-09-11T02:58:53.096Z,3.20
2018-09-11T02:59:57.298Z,3.25
2018-09-11T03:01:01.684Z,3.50
2018-09-11T03:02:06.070Z,3.27
2018-09-11T03:03:10.239Z,3.62
2018-09-11T03:04:14.427Z,3.50
2018-09-11T03:05:18.673Z,3.17
2018-09-11T03:06:22.853Z,3.60
2018-09-11T03:07:27.024Z,3.42
2018-09-11T03:08:31.182Z,3.25
2018-09-11T03:09:35.537Z,3.80
2018-09-11T03:10:39.761Z,3.40
2018-09-11T03:11:43.937Z,3.80
2018-09-11T03:12:48.170Z,3.40
2018-09-11T03:13:52.291Z,3.30
2018-09-11T03:14:56.466Z,2.90
2018-09-11T03:16:00.621Z,3.00
2018-09-11T03:17:04.990Z,3.05
2018-09-11T03:18:09.167Z,3.35
2018-09-11T03:19:13.404Z,3.60
2018-09-11T03:20:17.529Z,3.65
2018-09-11T03:21:21.667Z,2.62
2018-09-11T03:22:25.861Z,3.60
2018-09-11T03:23:30.017Z,3.00
2018-09-11T03:24:34.221Z,2.67
2018-09-11T03:25:38.426Z,3.20
2018-09-11T03:26:42.585Z,3.65
2018-09-11T03:27:46.836Z,3.47
2018-09-11T03:28:50.987Z,3.15
2018-09-11T03:29:55.248Z,2.77
2018-09-11T03:30:59.433Z,3.20
2018-09-11T03:32:03.598Z,2.62
2018-09-11T03:33:07.771Z,3.05
2018-09-11T03:34:11.955Z,3.05
2018-09-11T03:35:16.170Z,3.17
2018-09-11T03:36:20.432Z,3.15
2018-09-11T03:37:24.558Z,3.22
2018-09-11T03:38:28.747Z,3.20
2018-09-11T03:39:32.990Z,3.50
2018-09-11T03:40:37.176Z,3.10
2018-09-11T03:41:41.401Z,3.20
2018-09-11T03:42:45.703Z,3.12
2018-09-11T03:43:49.913Z,2.70
2018-09-11T03:44:54.118Z,3.30
2018-09-11T03:45:58.266Z,2.98
2018-09-11T03:47:02.734Z,3.10
2018-09-11T03:48:06.869Z,2.77
2018-09-11T03:49:11.215Z,4.05
2018-09-11T03:50:15.402Z,3.45
2018-09-11T03:51:19.583Z,3.00
2018-09-11T03:52:23.888Z,3.50
2018-09-11T03:53:28.058Z,2.87
2018-09-11T03:54:32.230Z,3.30
2018-09-11T03:55:36.379Z,3.67
2018-09-11T03:56:40.568Z,3.75
2018-09-11T03:57:44.711Z,3.87
2018-09-11T03:58:49.031Z,3.70
2018-09-11T03:59:53.177Z,4.37
2018-09-11T04:00:57.340Z,3.15
2018-09-11T04:02:01.891Z,4.42
2018-09-11T04:03:06.080Z,4.28
2018-09-11T04:04:10.253Z,4.50
2018-09-11T04:05:14.570Z,4.40
2018-09-11T04:06:18.836Z,4.55
2018-09-11T04:07:23.144Z,4.53
2018-09-11T04:08:27.287Z,4.40
2018-09-11T04:09:31.569Z,4.25
2018-09-11T04:10:36.018Z,4.42
2018-09-11T04:11:40.377Z,4.53
2018-09-11T04:12:44.546Z,4.65
2018-09-11T04:13:48.871Z,5.10
2018-09-11T04:14:53.060Z,5.30
2018-09-11T04:15:57.246Z,5.53
2018-09-11T04:17:01.455Z,4.60
2018-09-11T04:18:05.741Z,4.65
2018-09-11T04:19:10.117Z,4.53
2018-09-11T04:20:14.286Z,4.12
2018-09-11T04:21:18.493Z,3.98
2018-09-11T04:22:22.666Z,4.85
2018-09-11T04:23:26.998Z,4.00
2018-09-11T04:24:31.141Z,3.40
2018-09-11T04:25:35.355Z,4.80
2018-09-11T04:26:39.611Z,4.33
2018-09-11T04:27:43.983Z,4.17
2018-09-11T04:28:48.149Z,3.40
2018-09-11T04:29:52.302Z,4.35
2018-09-11T04:30:56.474Z,3.05
2018-09-11T04:32:00.679Z,3.45
2018-09-11T04:33:04.888Z,4.10
2018-09-11T04:34:09.075Z,3.58
2018-09-11T04:35:13.279Z,3.55
2018-09-11T04:36:17.530Z,3.85
2018-09-11T04:37:21.694Z,3.58
2018-09-11T04:38:25.854Z,4.20
2018-09-11T04:39:30.368Z,3.67
2018-09-11T04:40:34.628Z,3.80
2018-09-11T04:41:38.835Z,3.62
2018-09-11T04:42:42.990Z,4.22
2018-09-11T04:43:47.156Z,3.08
2018-09-11T04:44:51.345Z,3.15
2018-09-11T04:45:55.519Z,3.90
2018-09-11T04:46:59.860Z,2.85
2018-09-11T04:48:04.151Z,3.40
2018-09-11T04:49:08.371Z,3.90
2018-09-11T04:50:12.550Z,3.52
2018-09-11T04:51:16.886Z,2.95
2018-09-11T04:52:21.120Z,2.72
2018-09-11T04:53:25.500Z,2.83
2018-09-11T04:54:29.666Z,3.20
2018-09-11T04:55:33.836Z,2.90
2018-09-11T04:56:38.070Z,2.50
2018-09-11T04:57:42.234Z,2.75
2018-09-11T04:58:46.526Z,2.30
2018-09-11T04:59:50.701Z,2.70
2018-09-11T05:00:54.878Z,2.52
2018-09-11T05:01:59.141Z,2.50
2018-09-11T05:03:03.653Z,2.52
2018-09-11T05:04:07.864Z,2.60
2018-09-11T05:05:12.166Z,2.40
2018-09-11T05:06:16.309Z,2.42
2018-09-11T05:07:20.481Z,2.75
2018-09-11T05:08:24.704Z,2.58
2018-09-11T05:09:28.867Z,3.08
2018-09-11T05:10:33.250Z,2.30
2018-09-11T05:11:37.499Z,2.65
2018-09-11T05:12:41.685Z,2.62
2018-09-11T05:13:45.855Z,2.65
2018-09-11T05:14:50.219Z,2.30
2018-09-11T05:15:54.354Z,2.98
2018-09-11T05:16:58.748Z,2.80
2018-09-11T05:18:02.934Z,2.65
2018-09-11T05:19:07.135Z,2.70
2018-09-11T05:20:11.275Z,3.00
2018-09-11T05:21:15.438Z,2.62
2018-09-11T05:22:19.652Z,3.20
2018-09-11T05:23:23.794Z,2.90
2018-09-11T05:24:28.168Z,3.00
2018-09-11T05:25:32.374Z,2.98
2018-09-11T05:26:36.576Z,3.50
2018-09-11T05:27:40.785Z,2.33
2018-09-11T05:28:45.067Z,3.30
2018-09-11T05:29:49.235Z,2.90
2018-09-11T05:30:53.602Z,3.12
2018-09-11T05:31:57.806Z,2.98
2018-09-11T05:33:01.966Z,2.50
2018-09-11T05:34:06.319Z,2.42
2018-09-11T05:35:10.832Z,3.00
2018-09-11T05:36:15.015Z,2.37
2018-09-11T05:37:19.202Z,3.50
2018-09-11T05:38:23.549Z,2.30
2018-09-11T05:39:27.866Z,2.80
2018-09-11T05:40:32.226Z,2.50
2018-09-11T05:41:36.475Z,2.75
2018-09-11T05:42:40.622Z,2.50
2018-09-11T05:43:44.883Z,2.72
2018-09-11T05:44:49.046Z,3.42
2018-09-11T05:45:53.587Z,2.55
2018-09-11T05:46:57.812Z,2.65
2018-09-11T05:48:01.988Z,2.80
2018-09-11T05:49:06.421Z,2.65
2018-09-11T05:50:10.705Z,2.80
2018-09-11T05:51:14.998Z,2.87
2018-09-11T05:52:19.300Z,3.00
2018-09-11T05:53:23.526Z,2.67
2018-09-11T05:54:27.751Z,2.52
2018-09-11T05:55:31.911Z,2.75
2018-09-11T05:56:36.153Z,2.72
2018-09-11T05:57:40.324Z,2.75
2018-09-11T05:58:44.484Z,2.52
2018-09-11T05:59:48.655Z,3.10
2018-09-11T06:00:53.051Z,3.80
2018-09-11T06:01:57.201Z,2.30
2018-09-11T06:03:01.374Z,2.60
2018-09-11T06:04:06.189Z,3.22
2018-09-11T06:05:10.340Z,2.20
2018-09-11T06:06:14.501Z,3.33
2018-09-11T06:07:18.881Z,2.98
2018-09-11T06:08:23.050Z,2.47
2018-09-11T06:09:27.238Z,2.58
2018-09-11T06:10:31.485Z,2.40
2018-09-11T06:11:35.686Z,3.20
2018-09-11T06:12:39.858Z,3.00
2018-09-11T06:13:44.026Z,3.08
2018-09-11T06:14:48.408Z,2.92
2018-09-11T06:15:52.675Z,2.72
2018-09-11T06:16:56.929Z,3.05
2018-09-11T06:18:01.095Z,2.77
2018-09-11T06:19:05.611Z,2.65
2018-09-11T06:20:10.012Z,2.47
2018-09-11T06:21:14.419Z,2.67
2018-09-11T06:22:18.638Z,3.02
2018-09-11T06:23:22.774Z,3.12
2018-09-11T06:24:27.306Z,2.40
2018-09-11T06:25:31.469Z,2.20
2018-09-11T06:26:35.751Z,2.35
2018-09-11T06:27:39.922Z,2.40
2018-09-11T06:28:44.160Z,2.98
2018-09-11T06:29:48.366Z,3.20
2018-09-11T06:30:52.580Z,2.67
2018-09-11T06:31:56.760Z,2.35
2018-09-11T06:33:01.078Z,2.50
2018-09-11T06:34:05.382Z,2.62
2018-09-11T06:35:09.624Z,2.90
2018-09-11T06:36:13.947Z,2.60
2018-09-11T06:37:18.137Z,2.45
2018-09-11T06:38:22.342Z,2.35
2018-09-11T06:39:26.983Z,2.20
2018-09-11T06:40:31.198Z,3.20
2018-09-11T06:41:35.443Z,3.02
2018-09-11T06:42:39.620Z,2.00
2018-09-11T06:43:43.853Z,2.58
2018-09-11T06:44:48.156Z,3.17
2018-09-11T06:45:52.232Z,2.45
2018-09-11T06:46:56.573Z,2.90
2018-09-11T06:48:00.927Z,3.00
2018-09-11T06:49:05.504Z,2.72
2018-09-11T06:50:09.760Z,2.55
2018-09-11T06:51:14.004Z,2.12
2018-09-11T06:52:18.210Z,2.30
2018-09-11T06:53:22.362Z,2.65
2018-09-11T06:54:26.724Z,2.30
2018-09-11T06:55:30.857Z,2.37
2018-09-11T06:56:35.069Z,2.65
2018-09-11T06:57:39.222Z,2.60
2018-09-11T06:58:43.503Z,2.22
2018-09-11T06:59:47.633Z,2.75
2018-09-11T07:00:51.787Z,2.80
2018-09-11T07:01:55.997Z,3.17
2018-09-11T07:03:00.316Z,2.80
2018-09-11T07:04:04.772Z,2.62
2018-09-11T07:05:09.225Z,2.30
2018-09-11T07:06:13.451Z,2.95
2018-09-11T07:07:17.593Z,2.77
2018-09-11T07:08:22.067Z,2.83
2018-09-11T07:09:26.129Z,2.85
2018-09-11T07:10:30.305Z,2.98
2018-09-11T07:11:34.489Z,2.65
2018-09-11T07:12:38.822Z,2.70
2018-09-11T07:13:43.028Z,2.15
2018-09-11T07:14:47.271Z,2.67
2018-09-11T07:15:51.418Z,3.90
2018-09-11T07:16:55.731Z,2.80
2018-09-11T07:18:00.156Z,2.40
2018-09-11T07:19:04.512Z,2.65
2018-09-11T07:20:09.543Z,2.50
2018-09-11T07:21:13.574Z,3.10
2018-09-11T07:22:18.279Z,5.03
2018-09-11T07:23:22.445Z,3.30
2018-09-11T07:24:26.719Z,3.25
2018-09-11T07:25:30.895Z,2.95
2018-09-11T07:26:35.055Z,2.83
2018-09-11T07:27:39.247Z,3.65
2018-09-11T07:28:43.611Z,3.20
2018-09-11T07:29:48.139Z,3.75
2018-09-11T07:30:52.619Z,3.25
2018-09-11T07:31:56.867Z,2.75
2018-09-11T07:33:01.078Z,3.27
2018-09-11T07:34:05.311Z,2.85
2018-09-11T07:35:09.692Z,3.75
2018-09-11T07:36:14.108Z,4.22
2018-09-11T07:37:18.230Z,3.95
2018-09-11T07:38:22.401Z,3.40
2018-09-11T07:39:26.582Z,4.37
2018-09-11T07:40:30.864Z,4.87
2018-09-11T07:41:35.033Z,4.35
2018-09-11T07:42:39.334Z,3.62
2018-09-11T07:43:43.695Z,4.30
2018-09-11T07:44:47.948Z,4.55
2018-09-11T07:45:52.129Z,3.45
2018-09-11T07:46:56.310Z,3.65
2018-09-11T07:48:00.461Z,3.50
2018-09-11T07:49:04.817Z,2.98
2018-09-11T07:50:09.177Z,2.90
2018-09-11T07:51:13.588Z,4.33
2018-09-11T07:52:17.775Z,3.00
2018-09-11T07:53:21.932Z,3.75
2018-09-11T07:54:26.112Z,2.70
2018-09-11T07:55:30.409Z,2.50
2018-09-11T07:56:34.558Z,2.70
2018-09-11T07:57:38.776Z,2.85
2018-09-11T07:58:42.911Z,3.22
2018-09-11T07:59:47.057Z,2.10
2018-09-11T08:00:51.242Z,2.80
2018-09-11T08:01:55.411Z,2.33
2018-09-11T08:02:59.620Z,2.15
2018-09-11T08:04:03.946Z,2.60
2018-09-11T08:05:08.400Z,3.25
2018-09-11T08:06:12.616Z,2.70
2018-09-11T08:07:16.824Z,2.45
2018-09-11T08:08:21.079Z,2.67
2018-09-11T08:09:25.320Z,2.90
2018-09-11T08:10:29.457Z,3.25
2018-09-11T08:11:33.662Z,2.80
2018-09-11T08:12:37.830Z,2.95
2018-09-11T08:13:42.138Z,2.45
2018-09-11T08:14:46.314Z,2.40
2018-09-11T08:15:50.532Z,3.37
2018-09-11T08:16:54.777Z,3.10
2018-09-11T08:17:58.943Z,2.30
2018-09-11T08:19:03.439Z,2.60
2018-09-11T08:20:07.709Z,2.60
2018-09-11T08:21:12.193Z,2.50
2018-09-11T08:22:16.454Z,2.98
2018-09-11T08:23:20.574Z,2.12
2018-09-11T08:24:24.869Z,2.55
2018-09-11T08:25:29.177Z,2.33
2018-09-11T08:26:33.299Z,2.10
2018-09-11T08:27:37.528Z,2.52
2018-09-11T08:28:41.879Z,2.60
2018-09-11T08:29:46.204Z,1.77
2018-09-11T08:30:50.342Z,2.02
2018-09-11T08:31:54.754Z,2.60
2018-09-11T08:32:58.982Z,2.27
2018-09-11T08:34:03.545Z,2.45
2018-09-11T08:35:07.737Z,2.05
2018-09-11T08:36:11.866Z,2.10
2018-09-11T08:37:16.010Z,2.47
2018-09-11T08:38:20.264Z,2.77
2018-09-11T08:39:24.463Z,2.22
2018-09-11T08:40:28.666Z,2.10
2018-09-11T08:41:32.816Z,2.05
2018-09-11T08:42:36.953Z,2.20
2018-09-11T08:43:41.249Z,2.35
2018-09-11T08:44:45.398Z,2.35
2018-09-11T08:45:49.550Z,2.50
2018-09-11T08:46:53.717Z,2.33
2018-09-11T08:47:57.958Z,2.17
2018-09-11T08:49:02.595Z,1.90
2018-09-11T08:50:07.212Z,2.40
2018-09-11T08:51:12.032Z,2.90
2018-09-11T08:52:16.218Z,2.05
2018-09-11T08:53:20.561Z,2.70
2018-09-11T08:54:24.973Z,2.10
2018-09-11T08:55:29.202Z,2.42
2018-09-11T08:56:33.353Z,2.52
2018-09-11T08:57:37.519Z,1.80
2018-09-11T08:58:41.788Z,2.50
2018-09-11T08:59:46.001Z,2.00
2018-09-11T09:00:50.137Z,2.30
2018-09-11T09:01:54.353Z,2.10
2018-09-11T09:02:58.527Z,2.52
2018-09-11T09:04:02.720Z,1.95
2018-09-11T09:05:06.929Z,2.15
2018-09-11T09:06:11.311Z,2.00
2018-09-11T09:07:15.491Z,2.50
2018-09-11T09:08:19.621Z,2.80
2018-09-11T09:09:23.794Z,2.30
2018-09-11T09:10:28.006Z,2.72
2018-09-11T09:11:32.142Z,2.40
2018-09-11T09:12:36.457Z,2.20
2018-09-11T09:13:40.607Z,2.47
2018-09-11T09:14:44.868Z,2.80
2018-09-11T09:15:49.092Z,2.50
2018-09-11T09:16:53.246Z,2.22
2018-09-11T09:17:57.428Z,2.25
2018-09-11T09:19:01.569Z,2.45
2018-09-11T09:20:05.798Z,2.60
2018-09-11T09:21:10.152Z,2.70
2018-09-11T09:22:14.351Z,2.40
2018-09-11T09:23:18.757Z,2.25
2018-09-11T09:24:22.922Z,2.30
2018-09-11T09:25:27.074Z,3.17
2018-09-11T09:26:31.271Z,2.40
2018-09-11T09:27:35.428Z,2.65
2018-09-11T09:28:39.639Z,2.62
2018-09-11T09:29:43.943Z,2.50
2018-09-11T09:30:48.116Z,2.30
2018-09-11T09:31:52.429Z,2.72
2018-09-11T09:32:56.930Z,3.12
2018-09-11T09:34:01.114Z,2.40
2018-09-11T09:35:05.437Z,2.42
2018-09-11T09:36:09.643Z,3.12
2018-09-11T09:37:13.905Z,2.77
2018-09-11T09:38:18.075Z,2.40
2018-09-11T09:39:22.234Z,2.75
2018-09-11T09:40:26.690Z,2.98
2018-09-11T09:41:31.069Z,2.90
2018-09-11T09:42:35.470Z,2.25
2018-09-11T09:43:39.651Z,2.85
2018-09-11T09:44:43.842Z,2.90
2018-09-11T09:45:48.022Z,2.90
2018-09-11T09:46:52.212Z,3.20
2018-09-11T09:47:56.427Z,2.80
2018-09-11T09:49:00.599Z,3.52
2018-09-11T09:50:05.110Z,2.90
2018-09-11T09:51:09.407Z,2.75
2018-09-11T09:52:13.611Z,2.52
2018-09-11T09:53:18.075Z,2.60
2018-09-11T09:54:22.406Z,2.87
2018-09-11T09:55:26.607Z,2.55
2018-09-11T09:56:30.742Z,2.90
2018-09-11T09:57:34.926Z,3.22
2018-09-11T09:58:39.144Z,2.45
2018-09-11T09:59:44.340Z,3.37
2018-09-11T10:00:53.805Z,2.60
2018-09-11T10:02:03.208Z,3.30
2018-09-11T10:03:07.353Z,2.98
2018-09-11T10:04:11.871Z,3.30
2018-09-11T10:05:16.049Z,2.58
2018-09-11T10:06:20.479Z,3.42
2018-09-11T10:07:24.946Z,3.17
2018-09-11T10:08:29.069Z,3.20
2018-09-11T10:09:33.358Z,3.02
2018-09-11T10:10:37.515Z,2.95
2018-09-11T10:11:41.896Z,2.80
2018-09-11T10:12:46.055Z,3.30
2018-09-11T10:13:50.227Z,2.70
2018-09-11T10:14:54.426Z,2.90
2018-09-11T10:15:58.626Z,3.70
2018-09-11T10:17:02.815Z,3.20
2018-09-11T10:18:06.622Z,2.50
2018-09-11T10:19:10.788Z,2.73
2018-09-11T10:20:15.017Z,2.75
2018-09-11T10:21:19.203Z,2.80
2018-09-11T10:22:23.375Z,2.60
2018-09-11T10:23:27.561Z,3.13
2018-09-11T10:24:31.921Z,2.90
2018-09-11T10:25:36.209Z,3.45
2018-09-11T10:26:40.373Z,3.02
2018-09-11T10:27:44.625Z,4.00
2018-09-11T10:28:48.743Z,2.90
2018-09-11T10:29:52.898Z,3.05
2018-09-11T10:30:57.107Z,3.10
2018-09-11T10:32:01.236Z,3.40
2018-09-11T10:33:05.395Z,2.58
2018-09-11T10:34:09.589Z,2.50
2018-09-11T10:35:13.771Z,3.00
2018-09-11T10:36:17.941Z,3.40
2018-09-11T10:37:22.118Z,2.93
2018-09-11T10:38:26.331Z,2.80
2018-09-11T10:39:30.546Z,3.00
2018-09-11T10:40:34.784Z,2.58
2018-09-11T10:41:38.998Z,2.80
2018-09-11T10:42:43.211Z,2.53
2018-09-11T10:43:47.709Z,2.90
2018-09-11T10:44:51.923Z,2.40
2018-09-11T10:45:56.120Z,2.50
2018-09-11T10:47:00.331Z,3.63
2018-09-11T10:48:04.511Z,3.10
2018-09-11T10:49:08.755Z,3.05
2018-09-11T10:50:12.914Z,2.80
2018-09-11T10:51:17.100Z,2.72
2018-09-11T10:52:21.283Z,2.62
2018-09-11T10:53:25.479Z,2.60
2018-09-11T10:54:29.664Z,2.90
2018-09-11T10:55:33.903Z,2.58
2018-09-11T10:56:38.174Z,3.17
2018-09-11T10:57:42.621Z,2.77
2018-09-11T10:58:46.783Z,2.50
2018-09-11T10:59:51.153Z,3.43
2018-09-11T11:00:55.337Z,2.60
2018-09-11T11:01:59.482Z,2.50
2018-09-11T11:03:03.934Z,2.70
2018-09-11T11:04:08.141Z,2.50
2018-09-11T11:05:12.381Z,2.40
2018-09-11T11:06:16.505Z,2.83
2018-09-11T11:07:21.100Z,3.20
2018-09-11T11:08:25.281Z,2.70
2018-09-11T11:09:29.664Z,2.57
2018-09-11T11:10:33.888Z,2.67
2018-09-11T11:11:38.180Z,3.03
2018-09-11T11:12:42.443Z,2.77
2018-09-11T11:13:46.645Z,2.90
2018-09-11T11:14:51.927Z,2.42
2018-09-11T11:15:56.064Z,3.03
2018-09-11T11:17:00.315Z,2.80
2018-09-11T11:18:04.624Z,3.00
2018-09-11T11:19:08.999Z,3.00
2018-09-11T11:20:13.355Z,2.90
2018-09-11T11:21:17.652Z,3.33
2018-09-11T11:22:22.231Z,2.40
2018-09-11T11:23:26.411Z,3.90
2018-09-11T11:24:30.673Z,3.30
2018-09-11T11:25:34.793Z,2.67
2018-09-11T11:26:38.955Z,2.80
2018-09-11T11:27:43.099Z,2.67
2018-09-11T11:28:47.258Z,2.57
2018-09-11T11:29:51.509Z,2.77
2018-09-11T11:30:55.649Z,2.80
2018-09-11T11:31:59.805Z,2.60
2018-09-11T11:33:03.963Z,3.60
2018-09-11T11:34:08.329Z,2.63
2018-09-11T11:35:12.740Z,3.20
2018-09-11T11:36:17.053Z,3.10
2018-09-11T11:37:21.142Z,3.02
2018-09-11T11:38:25.282Z,3.00
2018-09-11T11:39:29.456Z,2.80
2018-09-11T11:40:33.656Z,3.90
2018-09-11T11:41:38.128Z,3.23
2018-09-11T11:42:42.327Z,5.57
2018-09-11T11:43:46.516Z,5.13
2018-09-11T11:44:50.661Z,4.40
2018-09-11T11:45:54.866Z,3.07
2018-09-11T11:46:59.002Z,3.13
2018-09-11T11:48:03.176Z,2.77
2018-09-11T11:49:07.348Z,3.43
2018-09-11T11:50:11.611Z,2.30
2018-09-11T11:51:15.796Z,2.93
2018-09-11T11:52:20.429Z,3.10
2018-09-11T11:53:24.583Z,2.87
2018-09-11T11:54:28.742Z,3.10
2018-09-11T11:55:32.980Z,2.80
2018-09-11T11:56:37.094Z,2.87
2018-09-11T11:57:41.238Z,3.17
2018-09-11T11:58:45.429Z,3.10
2018-09-11T11:59:49.549Z,2.77
2018-09-11T12:00:53.718Z,3.07
2018-09-11T12:01:57.964Z,3.53
2018-09-11T12:03:02.119Z,2.53
2018-09-11T12:04:06.528Z,3.23
2018-09-11T12:05:10.714Z,3.23
2018-09-11T12:06:14.879Z,3.20
2018-09-11T12:07:19.028Z,3.73
2018-09-11T12:08:23.787Z,2.67
2018-09-11T12:09:28.054Z,3.13
2018-09-11T12:10:32.478Z,3.00
2018-09-11T12:11:36.645Z,2.93
2018-09-11T12:12:40.840Z,3.00
2018-09-11T12:13:45.046Z,2.73
2018-09-11T12:14:49.199Z,3.87
2018-09-11T12:15:53.391Z,11.93
2018-09-11T12:16:57.621Z,3.40
2018-09-11T12:18:01.863Z,3.47
2018-09-11T12:19:06.006Z,3.27
2018-09-11T12:20:10.172Z,3.23
2018-09-11T12:21:14.387Z,2.97
2018-09-11T12:22:18.687Z,2.83
2018-09-11T12:23:22.842Z,3.23
2018-09-11T12:24:27.097Z,3.27
2018-09-11T12:25:31.308Z,3.37
2018-09-11T12:26:35.548Z,2.80
2018-09-11T12:27:39.816Z,2.80
2018-09-11T12:28:43.993Z,2.67
2018-09-11T12:29:48.171Z,3.00
2018-09-11T12:30:53.069Z,2.90
2018-09-11T12:31:57.230Z,2.95
2018-09-11T12:33:01.455Z,3.20
2018-09-11T12:34:05.637Z,2.53
2018-09-11T12:35:10.037Z,4.00
2018-09-11T12:36:14.172Z,2.83
2018-09-11T12:37:18.334Z,3.00
2018-09-11T12:38:22.483Z,3.20
2018-09-11T12:39:26.662Z,3.40
2018-09-11T12:40:31.506Z,3.10
2018-09-11T12:41:35.724Z,3.50
2018-09-11T12:42:39.877Z,3.70
2018-09-11T12:43:44.023Z,3.40
2018-09-11T12:44:48.224Z,3.03
2018-09-11T12:45:52.467Z,3.33
2018-09-11T12:46:56.683Z,3.13
2018-09-11T12:48:01.237Z,3.10
2018-09-11T12:49:04.936Z,3.03
2018-09-11T12:50:09.303Z,3.53
2018-09-11T12:51:13.494Z,3.37
2018-09-11T12:52:17.662Z,4.23
2018-09-11T12:53:21.826Z,3.50
2018-09-11T12:54:25.995Z,2.80
2018-09-11T12:55:30.228Z,3.30
2018-09-11T12:56:34.382Z,3.50
2018-09-11T12:57:38.568Z,2.97
2018-09-11T12:58:42.732Z,3.60
2018-09-11T12:59:48.034Z,3.97
2018-09-11T13:00:52.503Z,3.17
2018-09-11T13:01:56.634Z,3.47
2018-09-11T13:03:00.771Z,3.43
2018-09-11T13:04:04.935Z,3.57
2018-09-11T13:05:09.056Z,3.03
2018-09-11T13:06:13.321Z,2.70
2018-09-11T13:07:17.510Z,3.30
2018-09-11T13:08:21.724Z,2.90
2018-09-11T13:09:26.425Z,3.00
2018-09-11T13:10:30.785Z,4.00
2018-09-11T13:11:35.068Z,3.30
2018-09-11T13:12:39.307Z,3.43
2018-09-11T13:13:43.607Z,3.80
2018-09-11T13:14:47.832Z,3.80
2018-09-11T13:15:52.152Z,3.10
2018-09-11T13:16:56.401Z,3.20
2018-09-11T13:18:00.532Z,3.00
2018-09-11T13:19:04.762Z,3.20
2018-09-11T13:20:09.043Z,4.37
2018-09-11T13:21:13.349Z,3.27
2018-09-11T13:22:17.511Z,3.60
2018-09-11T13:23:21.657Z,3.57
2018-09-11T13:24:25.840Z,3.70
2018-09-11T13:25:30.065Z,3.33
2018-09-11T13:26:34.202Z,3.20
2018-09-11T13:27:38.424Z,3.23
2018-09-11T13:28:42.635Z,3.10
2018-09-11T13:29:46.807Z,3.17
2018-09-11T13:30:51.095Z,3.30
2018-09-11T13:31:55.313Z,3.20
2018-09-11T13:32:59.504Z,3.20
2018-09-11T13:34:03.656Z,3.47
2018-09-11T13:35:13.082Z,4.17
2018-09-11T13:36:22.465Z,2.90
2018-09-11T13:37:31.841Z,3.43
2018-09-11T13:38:41.469Z,3.03
2018-09-11T13:39:51.066Z,3.10
2018-09-11T13:41:00.644Z,3.37
2018-09-11T13:42:10.639Z,3.20
2018-09-11T13:43:20.066Z,3.30
2018-09-11T13:44:29.786Z,2.90
2018-09-11T13:45:39.522Z,3.80
2018-09-11T13:46:49.159Z,3.00
2018-09-11T13:47:58.728Z,2.37
2018-09-11T13:49:08.316Z,3.17
2018-09-11T13:50:18.250Z,3.00
2018-09-11T13:51:27.591Z,2.50
2018-09-11T13:52:37.097Z,3.00
2018-09-11T13:53:46.706Z,3.00
2018-09-11T13:54:56.291Z,2.77
2018-09-11T13:56:05.767Z,3.13
2018-09-11T13:57:15.155Z,3.10
2018-09-11T13:58:24.863Z,3.03
2018-09-11T13:59:34.326Z,2.97
2018-09-11T14:00:44.131Z,4.33
2018-09-11T14:01:53.861Z,2.77
2018-09-11T14:03:03.320Z,2.90
2018-09-11T14:04:12.873Z,3.10
2018-09-11T14:05:22.571Z,3.27
2018-09-11T14:06:31.952Z,2.63
2018-09-11T14:07:41.718Z,2.63
2018-09-11T14:08:51.160Z,2.93
2018-09-11T14:10:00.826Z,2.50
2018-09-11T14:11:10.368Z,3.60
2018-09-11T14:12:20.005Z,3.23
2018-09-11T14:13:29.400Z,3.37
2018-09-11T14:14:38.990Z,3.10
2018-09-11T14:15:48.367Z,3.30
2018-09-11T14:16:57.743Z,2.80
2018-09-11T14:18:07.345Z,4.23
2018-09-11T14:19:16.854Z,2.73